Time;durP1;ratioP1;P1;durP2;ratioP2;P2;SDS_P1;SDS_P2;PMS_P1;PMS_P2;Temp;Humidity;BMP_temperature;BMP_pressure;BME280_temperature;BME280_humidity;BME280_pressure;Samples;Min_cycle;Max_cycle;Signal;HPM_P1;HPM_P2
2021/09/30 00:01:31;;;;;;;3.35;2.00;;;;;;;9.94;88.93;100454.84;5135990;27;20283;-72
2021/09/30 00:03:57;;;;;;;5.00;2.40;;;;;;;9.68;90.81;100455.94;5136382;27;20186;-72
2021/09/30 00:06:24;;;;;;;6.65;2.63;;;;;;;9.70;92.06;100447.78;5135840;27;20201;-73
2021/09/30 00:08:50;;;;;;;5.95;2.38;;;;;;;9.89;90.07;100456.84;5136317;27;20283;-72
2021/09/30 00:11:22;;;;;;;3.25;2.30;;;;;;;9.79;90.25;100447.38;5136107;27;20209;-72
2021/09/30 00:13:52;;;;;;;4.22;2.20;;;;;;;9.76;90.37;100453.78;5135874;27;20201;-72
2021/09/30 00:16:35;;;;;;;2.67;1.70;;;;;;;9.67;91.76;100456.84;5135812;27;20243;-72
2021/09/30 00:32:52;;;;;;;3.92;2.38;;;;;;;9.33;94.07;100477.00;5135669;27;20183;-72
2021/09/30 00:35:32;;;;;;;2.35;2.10;;;;;;;9.41;93.75;100476.72;5135500;27;20184;-72
2021/09/30 00:41:11;;;;;;;3.40;1.90;;;;;;;9.49;92.31;100462.97;5135429;27;20310;-71
2021/09/30 00:46:26;;;;;;;3.47;2.10;;;;;;;9.46;93.24;100477.41;5135374;27;20204;-71
2021/09/30 00:49:08;;;;;;;2.08;1.85;;;;;;;9.45;92.62;100477.47;5135439;27;20184;-70
2021/09/30 00:51:44;;;;;;;3.35;1.88;;;;;;;9.59;92.41;100485.88;5135357;27;20578;-71
2021/09/30 00:54:42;;;;;;;2.83;2.17;;;;;;;9.53;91.88;100472.66;5135118;27;20251;-70
2021/09/30 01:20:18;;;;;;;2.90;2.45;;;;;;;9.54;91.07;100482.47;5134707;27;20186;-71
2021/09/30 01:46:02;;;;;;;4.63;3.05;;;;;;;9.42;91.66;100491.03;5134307;27;20315;-71
2021/09/30 02:19:20;;;;;;;5.07;2.95;;;;;;;8.66;95.46;100491.19;5133365;28;20301;-71
2021/09/30 02:22:07;;;;;;;6.30;2.60;;;;;;;8.48;96.25;100484.66;5134136;28;20187;-71
2021/09/30 03:00:45;;;;;;;3.80;3.40;;;;;;;8.09;100.00;100511.88;5078942;28;20193;-72
2021/09/30 03:03:17;;;;;;;4.43;2.97;;;;;;;7.98;100.00;100508.66;5089558;28;20195;-72
2021/09/30 03:05:46;;;;;;;3.88;3.38;;;;;;;8.03;100.00;100508.56;5090122;28;20186;-73
2021/09/30 03:08:15;;;;;;;6.00;3.28;;;;;;;8.02;100.00;100506.78;5090122;28;20533;-72
2021/09/30 03:10:42;;;;;;;3.30;3.00;;;;;;;8.06;100.00;100516.47;5089470;28;20188;-72
2021/09/30 03:13:09;;;;;;;3.50;3.20;;;;;;;8.03;100.00;100508.56;5089971;28;20274;-72
2021/09/30 03:15:41;;;;;;;4.65;2.60;;;;;;;8.00;100.00;100517.56;5089491;28;20277;-72
2021/09/30 03:23:43;;;;;;;4.90;3.40;;;;;;;8.08;100.00;100518.19;5089447;28;20185;-73
2021/09/30 03:26:10;;;;;;;7.95;3.60;;;;;;;8.06;100.00;100514.66;5089594;28;20624;-72
2021/09/30 03:28:38;;;;;;;4.82;3.30;;;;;;;8.04;100.00;100515.66;5089156;28;20243;-72
2021/09/30 03:31:07;;;;;;;5.07;3.60;;;;;;;7.99;100.00;100515.81;5089441;28;20673;-72
2021/09/30 03:33:34;;;;;;;5.05;3.60;;;;;;;8.05;100.00;100515.63;5089154;28;20285;-73
2021/09/30 03:36:02;;;;;;;4.35;3.38;;;;;;;8.04;100.00;100516.53;5089379;28;20669;-72
2021/09/30 03:38:29;;;;;;;3.55;3.20;;;;;;;8.03;100.00;100520.16;5089557;28;20595;-72
2021/09/30 03:40:56;;;;;;;5.20;3.38;;;;;;;7.97;100.00;100512.28;5079364;28;20276;-72
2021/09/30 03:43:22;;;;;;;5.20;2.92;;;;;;;8.04;100.00;100505.78;5075744;28;20205;-72
2021/09/30 03:45:49;;;;;;;3.72;3.30;;;;;;;8.00;100.00;100520.22;5075630;28;20252;-72
2021/09/30 03:48:17;;;;;;;4.07;3.38;;;;;;;8.08;99.78;100512.81;5075045;28;20196;-73
2021/09/30 03:50:49;;;;;;;7.68;3.53;;;;;;;8.06;99.83;100506.63;5075657;28;20193;-72
2021/09/30 03:53:21;;;;;;;9.68;3.70;;;;;;;8.09;99.85;100514.56;5075683;28;20214;-73
2021/09/30 03:56:03;;;;;;;4.78;3.30;;;;;;;8.00;100.00;100512.19;5075370;28;20244;-72
2021/09/30 04:01:15;;;;;;;5.13;3.42;;;;;;;8.14;99.72;100514.44;5075185;28;20311;-72
2021/09/30 04:03:42;;;;;;;5.90;3.55;;;;;;;8.23;98.88;100522.19;5074812;28;20268;-72
2021/09/30 04:06:10;;;;;;;4.80;3.92;;;;;;;8.21;98.36;100520.44;5075458;28;20289;-72
2021/09/30 04:08:38;;;;;;;5.55;3.35;;;;;;;8.26;98.38;100531.91;5075181;28;20651;-72
2021/09/30 04:11:05;;;;;;;5.10;3.25;;;;;;;8.33;96.66;100531.66;5075342;28;20636;-72
2021/09/30 04:13:31;;;;;;;5.68;3.80;;;;;;;8.28;96.56;100525.56;5075122;28;20612;-72
2021/09/30 04:15:58;;;;;;;4.13;3.17;;;;;;;8.28;96.61;100524.69;5074803;28;20194;-72
2021/09/30 04:18:25;;;;;;;5.07;3.55;;;;;;;8.34;96.48;100527.16;5074771;28;20188;-72
2021/09/30 04:20:52;;;;;;;8.52;3.40;;;;;;;8.30;96.64;100536.25;5075006;28;20204;-72
2021/09/30 04:23:19;;;;;;;7.63;4.00;;;;;;;8.36;96.06;100530.66;5074819;28;20189;-72
2021/09/30 04:25:47;;;;;;;4.90;4.50;;;;;;;8.28;96.76;100532.75;5075008;28;20212;-72
2021/09/30 04:28:14;;;;;;;5.35;4.25;;;;;;;8.26;97.20;100543.53;5074754;28;20228;-71
2021/09/30 04:30:41;;;;;;;6.93;4.28;;;;;;;8.28;96.92;100552.41;5074833;28;20571;-72
2021/09/30 04:33:07;;;;;;;8.10;4.78;;;;;;;8.23;97.55;100545.41;5074710;28;20524;-72
2021/09/30 04:35:34;;;;;;;5.20;3.53;;;;;;;8.18;97.85;100552.75;5074016;28;20205;-72
2021/09/30 04:38:01;;;;;;;9.43;3.95;;;;;;;8.19;97.11;100546.47;5074659;28;20185;-72
2021/09/30 04:40:27;;;;;;;5.47;4.60;;;;;;;8.00;98.53;100554.22;5074439;28;20292;-72
2021/09/30 04:42:55;;;;;;;8.00;5.55;;;;;;;7.94;100.00;100534.72;5074187;28;20191;-73
2021/09/30 04:45:22;;;;;;;5.07;3.90;;;;;;;7.91;100.00;100540.22;5074141;28;20276;-72
2021/09/30 04:47:49;;;;;;;11.73;5.03;;;;;;;7.93;100.00;100532.09;5073941;28;20556;-72
2021/09/30 04:50:16;;;;;;;8.15;4.20;;;;;;;7.85;99.89;100534.16;5074313;28;20206;-72
2021/09/30 04:52:42;;;;;;;7.00;4.25;;;;;;;7.83;100.00;100536.88;5072671;28;20233;-72
2021/09/30 04:55:09;;;;;;;11.30;4.93;;;;;;;7.79;100.00;100540.59;5074086;28;20196;-72
2021/09/30 04:57:36;;;;;;;10.18;5.32;;;;;;;7.86;100.00;100538.59;5073238;28;20185;-73
2021/09/30 05:00:05;;;;;;;7.53;5.15;;;;;;;7.83;100.00;100544.06;5073264;28;20193;-73
2021/09/30 05:02:32;;;;;;;9.65;5.65;;;;;;;7.84;100.00;100541.31;5072859;28;20620;-72
2021/09/30 05:04:58;;;;;;;6.75;5.35;;;;;;;7.74;100.00;100542.53;5074000;28;20205;-72
2021/09/30 05:07:25;;;;;;;8.50;5.53;;;;;;;7.73;100.00;100551.50;5056798;28;20201;-72
2021/09/30 05:09:52;;;;;;;5.93;5.00;;;;;;;7.76;100.00;100546.06;5074050;28;20682;-73
2021/09/30 05:12:21;;;;;;;10.48;7.10;;;;;;;7.61;100.00;100547.41;5073568;28;20193;-72
2021/09/30 05:14:48;;;;;;;8.40;6.70;;;;;;;7.58;100.00;100552.00;5073394;28;20214;-72
2021/09/30 05:17:16;;;;;;;10.13;6.85;;;;;;;7.62;100.00;100556.31;5073711;28;20247;-72
2021/09/30 05:19:42;;;;;;;9.20;6.55;;;;;;;7.62;100.00;100548.25;5073308;28;20283;-72
2021/09/30 05:22:09;;;;;;;8.63;6.22;;;;;;;7.64;100.00;100547.31;5059500;28;20229;-72
2021/09/30 05:24:36;;;;;;;8.88;7.03;;;;;;;7.49;100.00;100556.69;5053815;28;20612;-72
2021/09/30 05:27:03;;;;;;;11.00;6.53;;;;;;;7.52;100.00;100559.25;5053282;28;20640;-73
2021/09/30 05:29:29;;;;;;;9.70;7.18;;;;;;;7.60;100.00;100556.38;5053012;28;20244;-72
2021/09/30 05:31:56;;;;;;;11.60;7.55;;;;;;;7.67;100.00;100552.56;5053171;28;20186;-71
2021/09/30 05:34:24;;;;;;;9.75;7.15;;;;;;;7.58;100.00;100550.19;5070247;28;20194;-73
2021/09/30 05:36:51;;;;;;;9.98;7.38;;;;;;;7.62;100.00;100559.88;5072592;28;20208;-72
2021/09/30 05:39:17;;;;;;;10.20;7.57;;;;;;;7.77;100.00;100560.31;5072405;28;20193;-72
2021/09/30 05:41:48;;;;;;;12.32;11.13;;;;;;;7.80;100.00;100557.53;5073219;28;20196;-72
2021/09/30 05:44:16;;;;;;;14.93;9.70;;;;;;;7.83;100.00;100557.47;5072580;28;20189;-73
2021/09/30 05:46:45;;;;;;;12.48;8.57;;;;;;;7.80;100.00;100562.91;5073274;28;20185;-73
2021/09/30 05:49:11;;;;;;;18.42;9.50;;;;;;;7.67;100.00;100565.97;5072873;28;20229;-72
2021/09/30 05:51:40;;;;;;;11.70;7.97;;;;;;;7.74;100.00;100569.34;5073015;28;20233;-72
2021/09/30 05:54:06;;;;;;;14.27;8.35;;;;;;;7.85;100.00;100569.91;5072836;28;20199;-72
2021/09/30 05:56:33;;;;;;;10.88;8.40;;;;;;;7.81;100.00;100570.91;5073054;28;20192;-72
2021/09/30 05:59:00;;;;;;;19.60;14.88;;;;;;;8.02;100.00;100572.03;5072977;28;20687;-72
2021/09/30 06:12:57;;;;;;;15.30;8.02;;;;;;;8.07;99.27;100571.88;5071903;28;20643;-74
2021/09/30 06:15:29;;;;;;;14.10;9.35;;;;;;;8.13;99.00;100577.06;5071880;28;20186;-73
2021/09/30 06:17:57;;;;;;;13.77;9.02;;;;;;;7.93;99.32;100578.56;5072070;28;20188;-72
2021/09/30 06:20:23;;;;;;;10.35;7.95;;;;;;;8.09;99.91;100580.75;5072333;28;20271;-73
2021/09/30 06:22:52;;;;;;;12.40;8.70;;;;;;;8.19;98.94;100573.31;5072333;28;20207;-72
2021/09/30 06:25:19;;;;;;;16.60;7.90;;;;;;;8.22;98.45;100582.13;5067976;28;20288;-72
2021/09/30 06:27:47;;;;;;;14.00;8.60;;;;;;;8.26;97.98;100581.09;5052142;28;20532;-72
2021/09/30 06:30:14;;;;;;;16.35;9.63;;;;;;;8.32;97.33;100577.31;5052283;28;20229;-73
2021/09/30 06:32:42;;;;;;;11.90;8.20;;;;;;;8.32;96.56;100582.69;5057227;28;20273;-72
2021/09/30 06:35:10;;;;;;;11.98;7.90;;;;;;;8.44;97.25;100579.63;5059186;28;20206;-72
2021/09/30 06:37:37;;;;;;;11.13;8.05;;;;;;;8.53;95.72;100582.00;5052544;28;20281;-71
2021/09/30 06:40:06;;;;;;;15.63;8.68;;;;;;;8.53;95.33;100582.00;5052272;28;20613;-72
2021/09/30 06:42:33;;;;;;;9.63;8.27;;;;;;;8.47;95.99;100582.19;5052156;28;20544;-72
2021/09/30 06:44:59;;;;;;;11.40;8.15;;;;;;;8.59;95.67;100590.78;5052242;28;20529;-73
2021/09/30 06:47:26;;;;;;;11.65;8.10;;;;;;;8.46;95.67;100585.84;5057479;28;20196;-72
2021/09/30 06:49:53;;;;;;;12.30;8.90;;;;;;;8.61;95.00;100594.28;5070710;28;20288;-71
2021/09/30 06:52:19;;;;;;;10.98;9.05;;;;;;;8.51;95.25;100589.22;5072083;28;20308;-73
2021/09/30 06:54:46;;;;;;;16.20;9.60;;;;;;;8.62;95.08;100599.59;5072004;28;20187;-72
2021/09/30 06:57:14;;;;;;;13.32;8.20;;;;;;;8.90;93.51;100590.59;5071901;28;20198;-72
2021/09/30 06:59:40;;;;;;;13.55;8.63;;;;;;;8.95;93.09;100597.56;5071808;28;20190;-72
2021/09/30 07:02:08;;;;;;;9.48;7.38;;;;;;;9.01;91.84;100603.66;5071699;28;20635;-72
2021/09/30 07:04:36;;;;;;;10.32;8.40;;;;;;;9.01;91.27;100603.66;5071463;28;20289;-74
2021/09/30 07:07:04;;;;;;;13.93;8.77;;;;;;;8.88;92.29;100598.69;5071213;28;20206;-72
2021/09/30 07:09:31;;;;;;;13.05;8.43;;;;;;;8.98;92.08;100605.50;5070481;28;20210;-73
2021/09/30 07:11:59;;;;;;;13.52;8.15;;;;;;;8.98;92.26;100599.25;5071552;28;20613;-72
2021/09/30 07:14:27;;;;;;;13.95;8.30;;;;;;;9.18;91.81;100609.31;5071894;28;20202;-72
2021/09/30 07:16:54;;;;;;;13.40;8.18;;;;;;;9.37;90.64;100613.03;5075370;28;20185;-72
2021/09/30 07:19:20;;;;;;;12.52;7.78;;;;;;;9.79;87.82;100609.69;5077802;28;20206;-70
2021/09/30 07:21:47;;;;;;;10.35;8.63;;;;;;;10.27;85.08;100601.53;5095013;28;20291;-73
2021/09/30 07:24:14;;;;;;;12.05;8.77;;;;;;;10.75;81.28;100609.38;5095260;28;20188;-71
2021/09/30 07:26:41;;;;;;;10.48;7.25;;;;;;;10.75;80.01;100612.09;5095467;28;20267;-71
2021/09/30 07:29:07;;;;;;;8.48;6.30;;;;;;;10.28;81.68;100614.03;5094927;28;20230;-71
2021/09/30 07:31:36;;;;;;;9.40;7.32;;;;;;;10.55;80.72;100614.75;5095176;28;20182;-72
2021/09/30 07:34:03;;;;;;;12.75;7.20;;;;;;;10.48;81.25;100615.94;5095137;28;20191;-72
2021/09/30 07:36:30;;;;;;;12.68;8.30;;;;;;;10.69;80.99;100612.34;5095769;28;20563;-72
2021/09/30 07:38:56;;;;;;;13.18;8.85;;;;;;;10.74;80.24;100613.03;5095368;28;20203;-73
2021/09/30 07:41:23;;;;;;;12.32;6.93;;;;;;;10.65;80.30;100613.44;5095524;28;20239;-73
2021/09/30 07:43:49;;;;;;;14.18;7.65;;;;;;;10.65;80.79;100613.44;5095053;28;20298;-72
2021/09/30 07:46:16;;;;;;;14.57;10.85;;;;;;;10.71;80.96;100618.53;5095484;28;20343;-72
2021/09/30 07:48:44;;;;;;;10.65;8.10;;;;;;;10.83;80.47;100604.56;5094734;28;20306;-71
2021/09/30 07:51:12;;;;;;;14.52;8.77;;;;;;;11.00;80.11;100605.63;5071088;28;20212;-73
2021/09/30 07:53:39;;;;;;;12.98;8.68;;;;;;;11.23;78.36;100615.41;5072170;28;20224;-73
2021/09/30 07:56:05;;;;;;;11.95;7.53;;;;;;;11.31;77.94;100610.53;5075955;28;20224;-73
2021/09/30 07:58:32;;;;;;;9.60;6.45;;;;;;;11.37;77.13;100603.97;5074666;28;20197;-73
2021/09/30 08:00:59;;;;;;;14.65;8.15;;;;;;;11.58;76.42;100612.94;5074822;28;20275;-73
2021/09/30 08:03:29;;;;;;;10.32;7.10;;;;;;;11.50;76.91;100605.19;5074340;28;20200;-74
2021/09/30 08:05:57;;;;;;;9.75;6.70;;;;;;;11.51;75.94;100600.66;5074620;28;20192;-72
2021/09/30 08:08:23;;;;;;;11.20;7.22;;;;;;;11.53;76.59;100601.47;5074652;28;20200;-73
2021/09/30 08:10:50;;;;;;;7.90;6.53;;;;;;;11.50;76.60;100601.63;5074009;28;20209;-73
2021/09/30 08:13:17;;;;;;;9.55;6.20;;;;;;;11.23;77.26;100596.53;5073784;28;20556;-72
2021/09/30 08:15:43;;;;;;;12.02;5.68;;;;;;;11.28;77.11;100597.19;5074061;28;20200;-73
2021/09/30 08:18:11;;;;;;;12.15;5.45;;;;;;;11.59;76.26;100598.50;5074340;28;20722;-73
2021/09/30 08:23:47;;;;;;;8.40;5.60;;;;;;;11.41;76.77;100582.19;5073119;28;20200;-73
2021/09/30 08:26:18;;;;;;;10.70;7.55;;;;;;;11.77;76.11;100584.13;5073822;28;20181;-73
2021/09/30 08:28:48;;;;;;;10.23;6.53;;;;;;;12.02;75.52;100591.97;5073627;28;20316;-72
2021/09/30 08:31:15;;;;;;;5.80;4.55;;;;;;;12.12;74.34;100583.41;5072482;28;20300;-72
2021/09/30 08:33:42;;;;;;;8.70;6.45;;;;;;;12.16;74.45;100582.31;5073368;28;20197;-72
2021/09/30 08:36:13;;;;;;;8.68;6.38;;;;;;;12.04;74.84;100583.78;5074241;28;20210;-70
2021/09/30 08:38:41;;;;;;;10.50;5.43;;;;;;;12.33;72.57;100590.47;5074129;28;20270;-71
2021/09/30 08:41:08;;;;;;;8.27;5.63;;;;;;;12.24;73.36;100581.00;5073686;28;20193;-73
2021/09/30 08:43:35;;;;;;;7.25;5.80;;;;;;;12.41;73.75;100585.53;5074930;28;20208;-72
2021/09/30 08:46:05;;;;;;;8.55;6.70;;;;;;;12.63;72.70;100582.63;5073784;28;20288;-72
2021/09/30 08:48:32;;;;;;;11.38;8.02;;;;;;;12.83;72.00;100587.03;5074354;28;20285;-72
2021/09/30 08:50:59;;;;;;;14.02;6.47;;;;;;;12.84;71.70;100582.47;5074215;28;20255;-71
2021/09/30 08:53:27;;;;;;;9.50;5.28;;;;;;;12.98;70.77;100577.25;5074201;28;20184;-71
2021/09/30 08:55:54;;;;;;;9.18;4.50;;;;;;;12.85;69.86;100578.84;5074421;28;20200;-71
2021/09/30 08:58:21;;;;;;;3.25;2.65;;;;;;;12.48;69.73;100573.50;5073865;28;20211;-71
2021/09/30 09:00:52;;;;;;;7.68;2.70;;;;;;;12.31;71.05;100576.16;5073636;28;20247;-72
2021/09/30 09:03:32;;;;;;;7.05;2.97;;;;;;;12.44;70.45;100571.03;5073660;28;20283;-72
2021/09/30 09:05:58;;;;;;;5.32;2.92;;;;;;;12.54;69.66;100577.69;5074003;28;20222;-73
2021/09/30 09:08:27;;;;;;;6.47;2.50;;;;;;;12.47;70.46;100578.97;5073596;28;20216;-72
2021/09/30 09:10:55;;;;;;;3.75;2.72;;;;;;;12.69;69.06;100576.94;5073638;28;20288;-72
2021/09/30 09:13:23;;;;;;;8.07;3.10;;;;;;;12.96;68.19;100572.84;5074083;28;20205;-72
2021/09/30 09:15:54;;;;;;;4.75;3.40;;;;;;;13.34;67.04;100584.38;5073652;28;20254;-71
2021/09/30 09:18:22;;;;;;;6.88;2.67;;;;;;;13.33;66.37;100585.34;5073239;28;20197;-72
2021/09/30 09:21:00;;;;;;;5.68;2.90;;;;;;;13.23;66.62;100581.34;5073597;28;20209;-72
2021/09/30 09:23:29;;;;;;;4.72;2.45;;;;;;;13.01;67.39;100581.63;5073503;28;20275;-72
2021/09/30 09:26:07;;;;;;;9.40;2.70;;;;;;;13.23;66.94;100587.63;5073486;28;20205;-72
2021/09/30 09:28:34;;;;;;;3.70;2.20;;;;;;;13.28;66.31;100582.00;5073088;28;20255;-71
2021/09/30 09:31:01;;;;;;;5.20;2.10;;;;;;;13.45;65.63;100581.09;5073269;28;20204;-73
2021/09/30 09:33:29;;;;;;;6.85;2.70;;;;;;;13.53;65.05;100578.84;5072693;28;20279;-71
2021/09/30 09:36:03;;;;;;;4.70;2.35;;;;;;;13.65;64.78;100578.16;5072419;28;20553;-71
2021/09/30 09:38:44;;;;;;;8.70;2.50;;;;;;;13.87;64.31;100579.69;5072734;28;20263;-70
2021/09/30 09:41:16;;;;;;;5.80;2.88;;;;;;;14.18;63.15;100571.56;5074032;28;20608;-73
2021/09/30 09:43:45;;;;;;;5.28;1.85;;;;;;;14.27;62.16;100570.16;5073525;28;20188;-72
2021/09/30 09:46:14;;;;;;;4.38;2.10;;;;;;;14.50;61.59;100571.50;5073104;28;20287;-71
2021/09/30 09:48:53;;;;;;;6.20;1.95;;;;;;;14.65;60.51;100567.03;5073109;28;20537;-72
2021/09/30 09:51:20;;;;;;;5.88;2.45;;;;;;;14.85;59.62;100565.84;5073246;28;20251;-72
2021/09/30 09:53:48;;;;;;;5.20;2.08;;;;;;;14.91;59.22;100565.47;5072748;28;20228;-71
2021/09/30 09:56:18;;;;;;;4.88;2.00;;;;;;;15.03;58.84;100561.13;5073131;28;20206;-71
2021/09/30 09:58:47;;;;;;;4.35;2.42;;;;;;;15.00;58.48;100540.50;5073378;28;20182;-70
2021/09/30 10:01:14;;;;;;;5.45;1.83;;;;;;;15.08;57.93;100548.19;5072842;28;20208;-72
2021/09/30 10:03:53;;;;;;;3.13;2.05;;;;;;;15.15;57.60;100538.69;5072925;28;20986;-72
2021/09/30 10:06:20;;;;;;;4.22;2.05;;;;;;;15.19;57.98;100545.66;5048313;28;20250;-73
2021/09/30 10:08:49;;;;;;;7.53;4.20;;;;;;;15.23;56.49;100538.19;5031203;28;20191;-73
2021/09/30 10:11:15;;;;;;;3.78;1.73;;;;;;;15.30;57.20;100538.69;5031293;28;20222;-73
2021/09/30 10:13:42;;;;;;;4.43;2.40;;;;;;;15.25;56.23;100536.28;5030578;28;20276;-72
2021/09/30 10:16:09;;;;;;;2.00;1.50;;;;;;;15.02;55.48;100538.56;5030898;28;20251;-73
2021/09/30 10:18:36;;;;;;;3.85;1.80;;;;;;;14.98;55.64;100541.56;5031229;28;20207;-72
2021/09/30 10:21:03;;;;;;;8.27;1.70;;;;;;;15.02;56.10;100535.00;5031124;28;20203;-73
2021/09/30 10:23:34;;;;;;;3.97;1.95;;;;;;;15.53;54.33;100538.09;5031414;28;20200;-73
2021/09/30 10:26:12;;;;;;;3.42;1.90;;;;;;;15.80;51.96;100537.31;5031283;28;20198;-73
2021/09/30 10:28:41;;;;;;;5.10;2.20;;;;;;;15.77;51.18;100537.53;5027418;28;20735;-73
2021/09/30 10:31:22;;;;;;;2.70;1.52;;;;;;;15.79;50.89;100535.59;5031213;28;20624;-73
2021/09/30 10:33:49;;;;;;;7.10;1.75;;;;;;;15.91;51.08;100542.94;5027417;28;20195;-73
2021/09/30 10:36:39;;;;;;;5.93;1.42;;;;;;;16.50;49.99;100544.50;5030673;28;20201;-72
2021/09/30 10:39:30;;;;;;;3.17;1.85;;;;;;;16.98;49.19;100539.38;5027927;28;20202;-72
2021/09/30 10:42:01;;;;;;;3.80;1.38;;;;;;;16.74;47.30;100533.78;5016084;28;20277;-72
2021/09/30 10:44:34;;;;;;;4.05;1.40;;;;;;;16.99;47.13;100533.00;5030839;28;20289;-72
2021/09/30 10:47:02;;;;;;;5.40;1.80;;;;;;;17.47;46.32;100520.44;5028599;28;20186;-72
2021/09/30 10:49:42;;;;;;;3.55;1.35;;;;;;;18.00;45.29;100527.53;5031289;28;20274;-73
2021/09/30 10:52:31;;;;;;;4.18;1.25;;;;;;;18.22;45.19;100519.50;5035110;28;20305;-73
2021/09/30 10:55:28;;;;;;;4.65;1.75;;;;;;;18.31;45.13;100512.47;5032113;28;20205;-74
2021/09/30 10:57:58;;;;;;;6.63;2.70;;;;;;;18.33;45.17;100515.97;5031682;28;20888;-71
2021/09/30 11:00:48;;;;;;;5.78;3.47;;;;;;;18.25;44.45;100511.09;5031720;28;20200;-72
2021/09/30 11:03:22;;;;;;;5.72;1.85;;;;;;;18.23;44.21;100513.06;5032719;28;20291;-73
2021/09/30 11:06:13;;;;;;;3.78;1.90;;;;;;;18.28;44.20;100518.19;5032044;28;20691;-72
2021/09/30 11:08:39;;;;;;;3.25;1.05;;;;;;;17.83;44.80;100516.03;5033670;28;20186;-73
2021/09/30 11:11:11;;;;;;;2.50;1.27;;;;;;;17.42;46.24;100521.78;5034981;28;20622;-73
2021/09/30 11:13:41;;;;;;;5.53;1.40;;;;;;;16.21;48.43;100528.28;5033309;28;20682;-73
2021/09/30 11:16:10;;;;;;;2.20;1.20;;;;;;;15.46;51.34;100527.75;5034897;28;20202;-73
2021/09/30 11:18:47;;;;;;;3.88;1.63;;;;;;;14.96;52.87;100522.66;5034051;28;20283;-74
2021/09/30 11:21:45;;;;;;;5.50;1.27;;;;;;;15.04;52.20;100522.22;5031854;28;20197;-73
2021/09/30 11:24:34;;;;;;;10.40;1.80;;;;;;;15.21;52.60;100513.88;5031660;28;20195;-73
2021/09/30 11:27:18;;;;;;;5.53;1.60;;;;;;;15.33;51.53;100512.25;5034375;28;20631;-74
2021/09/30 11:29:47;;;;;;;4.13;1.92;;;;;;;15.65;50.02;100512.03;5034911;28;20244;-73
2021/09/30 11:32:34;;;;;;;3.70;2.13;;;;;;;15.76;49.66;100497.75;5031874;28;20209;-74
2021/09/30 11:35:04;;;;;;;3.40;1.70;;;;;;;16.40;48.31;100488.03;5032420;28;20197;-72
2021/09/30 11:37:40;;;;;;;3.45;1.98;;;;;;;16.90;46.15;100485.53;5034810;28;20197;-73
2021/09/30 11:40:12;;;;;;;4.43;1.40;;;;;;;17.00;45.25;100486.59;5035344;28;20228;-75
2021/09/30 11:42:41;;;;;;;12.25;1.58;;;;;;;16.90;44.96;100479.22;5034833;28;20189;-73
2021/09/30 11:45:13;;;;;;;3.53;1.40;;;;;;;17.02;44.04;100471.03;5034274;28;20268;-73
2021/09/30 11:47:40;;;;;;;3.55;2.28;;;;;;;17.14;44.17;100479.31;5035128;28;20656;-72
2021/09/30 11:50:15;;;;;;;4.90;1.45;;;;;;;17.48;43.23;100481.34;5035440;28;20210;-72
2021/09/30 11:52:42;;;;;;;3.92;1.70;;;;;;;17.84;43.04;100454.25;5035447;28;20229;-74
2021/09/30 11:55:13;;;;;;;4.90;2.30;;;;;;;18.05;42.48;100447.19;5035154;28;20191;-73
2021/09/30 11:57:50;;;;;;;5.05;2.05;;;;;;;18.27;42.72;100440.09;5034898;28;20289;-74
2021/09/30 12:00:19;;;;;;;4.10;1.33;;;;;;;18.31;42.26;100441.59;5034755;28;20186;-74
2021/09/30 12:02:58;;;;;;;5.15;1.67;;;;;;;18.21;41.86;100436.00;5034142;28;20201;-74
2021/09/30 12:05:28;;;;;;;2.80;1.40;;;;;;;18.27;42.51;100430.06;5034879;28;20620;-74
2021/09/30 12:07:56;;;;;;;4.88;2.00;;;;;;;18.13;42.34;100422.06;5035173;28;20195;-74
2021/09/30 12:10:22;;;;;;;3.67;1.70;;;;;;;18.00;42.26;100421.25;5034989;28;20202;-73
2021/09/30 12:12:49;;;;;;;3.78;1.90;;;;;;;17.92;42.48;100427.31;5034303;28;20642;-73
2021/09/30 12:15:16;;;;;;;3.15;1.33;;;;;;;17.44;43.03;100416.34;5034820;28;20692;-74
2021/09/30 12:17:44;;;;;;;5.72;2.58;;;;;;;17.76;42.72;100415.81;5034757;28;20532;-73
2021/09/30 12:20:13;;;;;;;4.15;1.40;;;;;;;17.76;42.12;100407.63;5034835;28;20195;-74
2021/09/30 12:22:42;;;;;;;7.13;1.67;;;;;;;17.85;42.33;100396.06;5034078;28;20197;-74
2021/09/30 12:25:11;;;;;;;1.95;1.15;;;;;;;17.93;42.07;100390.88;5034295;28;20192;-74
2021/09/30 12:27:39;;;;;;;3.70;1.00;;;;;;;18.13;41.60;100395.72;5034353;28;20190;-73
2021/09/30 12:30:09;;;;;;;6.28;1.35;;;;;;;18.19;40.86;100383.44;5034085;28;20230;-73
2021/09/30 12:32:38;;;;;;;3.28;1.55;;;;;;;18.40;40.44;100386.34;5034064;28;20206;-74
2021/09/30 12:35:09;;;;;;;6.88;2.40;;;;;;;18.87;39.95;100386.34;5033658;28;20191;-74
2021/09/30 12:37:38;;;;;;;2.90;1.50;;;;;;;19.30;39.12;100380.13;5034063;28;20188;-74
2021/09/30 12:40:07;;;;;;;3.90;1.75;;;;;;;19.40;38.59;100385.69;5034157;28;20213;-74
2021/09/30 12:42:35;;;;;;;8.73;7.82;;;;;;;19.22;39.52;100391.69;5033975;28;20303;-74
2021/09/30 12:45:01;;;;;;;3.28;1.60;;;;;;;19.26;40.27;100371.28;5034422;28;20200;-74
2021/09/30 12:47:33;;;;;;;3.13;1.40;;;;;;;19.29;39.29;100390.19;5033930;28;20271;-73
2021/09/30 12:50:02;;;;;;;3.42;1.30;;;;;;;19.28;39.68;100388.41;5034051;28;20272;-74
2021/09/30 12:52:30;;;;;;;4.60;1.70;;;;;;;18.99;40.56;100387.19;5033669;28;20302;-73
2021/09/30 12:54:56;;;;;;;6.25;2.30;;;;;;;19.14;41.36;100386.81;5034023;28;20205;-73
2021/09/30 12:57:32;;;;;;;3.97;1.67;;;;;;;19.61;39.25;100378.44;5034044;28;20203;-73
2021/09/30 13:00:07;;;;;;;3.28;1.33;;;;;;;19.65;39.28;100382.66;5034157;28;20547;-74
2021/09/30 13:02:34;;;;;;;2.90;1.35;;;;;;;19.45;38.20;100380.72;5034023;28;20659;-73
2021/09/30 13:05:01;;;;;;;2.85;1.23;;;;;;;18.81;38.36;100384.09;5033605;28;20207;-73
2021/09/30 13:07:46;;;;;;;2.88;2.22;;;;;;;18.97;37.93;100381.84;5033359;28;20190;-74
2021/09/30 13:10:15;;;;;;;3.85;1.15;;;;;;;19.13;38.91;100376.03;5033530;28;20193;-74
2021/09/30 13:13:00;;;;;;;1.88;1.52;;;;;;;19.33;39.25;100372.56;5032589;28;20323;-73
2021/09/30 13:15:38;;;;;;;1.80;1.10;;;;;;;19.91;37.65;100374.16;5033677;28;20190;-74
2021/09/30 13:18:07;;;;;;;2.67;1.33;;;;;;;20.14;37.12;100375.78;5033620;28;20630;-73
2021/09/30 13:20:34;;;;;;;3.80;1.50;;;;;;;20.80;36.05;100374.66;5033412;28;20287;-74
2021/09/30 13:23:17;;;;;;;2.47;1.48;;;;;;;20.98;35.29;100373.03;5033672;28;20216;-73
2021/09/30 13:25:44;;;;;;;3.73;1.53;;;;;;;21.47;34.84;100361.41;5033472;28;20617;-72
2021/09/30 13:28:10;;;;;;;4.43;1.80;;;;;;;21.89;34.77;100356.56;5033175;28;20502;-74
2021/09/30 13:30:37;;;;;;;3.67;2.73;;;;;;;22.60;33.87;100361.69;5033373;28;20441;-74
2021/09/30 13:33:05;;;;;;;3.10;1.97;;;;;;;22.83;33.74;100359.44;5032594;28;20517;-72
2021/09/30 13:35:35;;;;;;;6.00;5.00;;;;;;;23.37;32.93;100354.16;5033256;28;20792;-73
2021/09/30 13:38:02;;;;;;;4.60;1.30;;;;;;;23.38;32.11;100346.78;5032789;28;20797;-73
2021/09/30 13:40:30;;;;;;;1.83;1.00;;;;;;;22.11;33.21;100338.91;5032941;28;20536;-73
2021/09/30 13:42:57;;;;;;;3.77;0.93;;;;;;;21.62;33.76;100347.16;5032885;28;20484;-74
2021/09/30 13:45:24;;;;;;;2.70;1.20;;;;;;;22.30;33.24;100337.22;5032904;28;20728;-72
2021/09/30 13:47:52;;;;;;;2.70;1.20;;;;;;;22.93;31.63;100333.81;5032831;28;21009;-72
2021/09/30 13:50:20;;;;;;;7.47;1.70;;;;;;;23.08;31.48;100327.72;5032273;28;20435;-74
2021/09/30 13:52:49;;;;;;;7.67;2.00;;;;;;;23.49;31.25;100332.81;5032510;28;20425;-73
2021/09/30 13:55:16;;;;;;;2.50;1.70;;;;;;;24.06;30.33;100327.94;5032453;28;20815;-73
2021/09/30 13:57:45;;;;;;;3.07;1.53;;;;;;;24.00;30.41;100331.31;5032035;28;20444;-72
2021/09/30 14:00:14;;;;;;;3.30;1.10;;;;;;;23.65;30.92;100307.41;5032091;28;20468;-73
2021/09/30 14:02:42;;;;;;;2.87;1.43;;;;;;;21.56;33.76;100308.47;5032925;28;20814;-73
2021/09/30 14:05:10;;;;;;;5.30;1.47;;;;;;;20.93;35.32;100309.59;5032639;28;20432;-73
2021/09/30 14:07:40;;;;;;;4.53;1.40;;;;;;;20.89;35.25;100307.28;5032928;28;20436;-73
2021/09/30 14:10:09;;;;;;;4.10;1.90;;;;;;;20.51;36.52;100311.53;5032802;28;20429;-73
2021/09/30 14:12:36;;;;;;;6.80;2.33;;;;;;;19.91;36.85;100301.22;5032341;28;20447;-73